sensor_id;sensor_type;location;lat;lon;timestamp;temperature;humidity
3866;DHT22;1948;53.250;10.412;2023-04-24T00:02:00;13.70;99.90
3866;DHT22;1948;53.250;10.412;2023-04-24T00:04:30;13.80;99.90
3866;DHT22;1948;53.250;10.412;2023-04-24T00:06:58;13.80;99.90
3866;DHT22;1948;53.250;10.412;2023-04-24T00:09:26;13.80;99.90
3866;DHT22;1948;53.250;10.412;2023-04-24T00:11:53;13.80;99.90
3866;DHT22;1948;53.250;10.412;2023-04-24T00:14:23;13.80;99.90
3866;DHT22;1948;53.250;10.412;2023-04-24T00:16:55;13.80;99.90
3866;DHT22;1948;53.250;10.412;2023-04-24T00:19:22;13.80;99.90
3866;DHT22;1948;53.250;10.412;2023-04-24T00:21:49;13.80;99.90
3866;DHT22;1948;53.250;10.412;2023-04-24T00:24:17;13.70;99.90
3866;DHT22;1948;53.250;10.412;2023-04-24T00:26:44;13.70;99.90
3866;DHT22;1948;53.250;10.412;2023-04-24T00:29:14;13.70;99.90
3866;DHT22;1948;53.250;10.412;2023-04-24T00:31:41;13.70;99.90
3866;DHT22;1948;53.250;10.412;2023-04-24T00:34:08;13.70;99.90
3866;DHT22;1948;53.250;10.412;2023-04-24T00:36:37;13.60;99.90
3866;DHT22;1948;53.250;10.412;2023-04-24T00:39:04;13.70;99.90
3866;DHT22;1948;53.250;10.412;2023-04-24T00:41:31;13.60;99.90
3866;DHT22;1948;53.250;10.412;2023-04-24T00:43:58;13.60;99.90
3866;DHT22;1948;53.250;10.412;2023-04-24T00:46:25;13.60;99.90
3866;DHT22;1948;53.250;10.412;2023-04-24T00:48:55;13.60;99.90
3866;DHT22;1948;53.250;10.412;2023-04-24T00:51:25;13.70;99.90
3866;DHT22;1948;53.250;10.412;2023-04-24T00:53:51;13.70;99.90
3866;DHT22;1948;53.250;10.412;2023-04-24T00:56:18;13.70;99.90
3866;DHT22;1948;53.250;10.412;2023-04-24T00:58:47;13.70;99.90
3866;DHT22;1948;53.250;10.412;2023-04-24T01:01:14;13.70;99.90
3866;DHT22;1948;53.250;10.412;2023-04-24T01:03:44;13.60;99.90
3866;DHT22;1948;53.250;10.412;2023-04-24T01:06:15;13.60;99.90
3866;DHT22;1948;53.250;10.412;2023-04-24T01:08:43;13.60;99.90
3866;DHT22;1948;53.250;10.412;2023-04-24T01:11:12;13.50;99.90
3866;DHT22;1948;53.250;10.412;2023-04-24T01:13:39;13.50;99.90
3866;DHT22;1948;53.250;10.412;2023-04-24T01:16:09;13.40;99.90
3866;DHT22;1948;53.250;10.412;2023-04-24T01:18:36;13.40;99.90
3866;DHT22;1948;53.250;10.412;2023-04-24T01:21:05;13.40;99.90
3866;DHT22;1948;53.250;10.412;2023-04-24T01:23:35;13.30;99.90
3866;DHT22;1948;53.250;10.412;2023-04-24T01:26:03;13.20;99.90
3866;DHT22;1948;53.250;10.412;2023-04-24T01:28:33;13.20;99.90
3866;DHT22;1948;53.250;10.412;2023-04-24T01:31:00;13.10;99.90
3866;DHT22;1948;53.250;10.412;2023-04-24T01:33:29;13.10;99.90
3866;DHT22;1948;53.250;10.412;2023-04-24T01:35:56;13.10;99.90
3866;DHT22;1948;53.250;10.412;2023-04-24T01:38:26;13.00;99.90
3866;DHT22;1948;53.250;10.412;2023-04-24T01:40:53;13.00;99.90
3866;DHT22;1948;53.250;10.412;2023-04-24T01:43:21;13.00;99.90
3866;DHT22;1948;53.250;10.412;2023-04-24T01:45:53;13.00;99.90
3866;DHT22;1948;53.250;10.412;2023-04-24T01:48:22;12.90;99.90
3866;DHT22;1948;53.250;10.412;2023-04-24T01:50:49;12.90;99.90
3866;DHT22;1948;53.250;10.412;2023-04-24T01:53:19;12.90;99.90
3866;DHT22;1948;53.250;10.412;2023-04-24T01:55:46;12.80;99.90
3866;DHT22;1948;53.250;10.412;2023-04-24T01:58:13;12.80;99.90
3866;DHT22;1948;53.250;10.412;2023-04-24T02:00:40;12.80;99.90
3866;DHT22;1948;53.250;10.412;2023-04-24T02:03:07;12.80;99.90
3866;DHT22;1948;53.250;10.412;2023-04-24T02:05:37;12.80;99.90
3866;DHT22;1948;53.250;10.412;2023-04-24T02:08:06;12.80;99.90
3866;DHT22;1948;53.250;10.412;2023-04-24T02:10:33;12.80;99.90
3866;DHT22;1948;53.250;10.412;2023-04-24T02:13:00;12.80;99.90
3866;DHT22;1948;53.250;10.412;2023-04-24T02:15:27;12.80;99.90
3866;DHT22;1948;53.250;10.412;2023-04-24T02:17:56;12.80;99.90
3866;DHT22;1948;53.250;10.412;2023-04-24T02:20:23;12.80;99.90
3866;DHT22;1948;53.250;10.412;2023-04-24T02:22:53;12.80;99.90
3866;DHT22;1948;53.250;10.412;2023-04-24T02:25:22;12.70;99.90
3866;DHT22;1948;53.250;10.412;2023-04-24T02:27:49;12.70;99.90
3866;DHT22;1948;53.250;10.412;2023-04-24T02:30:16;12.70;99.90
3866;DHT22;1948;53.250;10.412;2023-04-24T02:32:46;12.70;99.90
3866;DHT22;1948;53.250;10.412;2023-04-24T02:35:13;12.60;99.90
3866;DHT22;1948;53.250;10.412;2023-04-24T02:37:42;12.70;99.90
3866;DHT22;1948;53.250;10.412;2023-04-24T02:40:09;12.70;99.90
3866;DHT22;1948;53.250;10.412;2023-04-24T02:42:38;12.70;99.90
3866;DHT22;1948;53.250;10.412;2023-04-24T02:45:05;12.60;99.90
3866;DHT22;1948;53.250;10.412;2023-04-24T02:47:33;12.60;99.90
3866;DHT22;1948;53.250;10.412;2023-04-24T02:50:02;12.50;99.90
3866;DHT22;1948;53.250;10.412;2023-04-24T02:52:32;12.50;99.90
3866;DHT22;1948;53.250;10.412;2023-04-24T02:54:59;12.50;99.90
3866;DHT22;1948;53.250;10.412;2023-04-24T02:57:26;12.40;99.90
3866;DHT22;1948;53.250;10.412;2023-04-24T02:59:53;12.30;99.90
3866;DHT22;1948;53.250;10.412;2023-04-24T03:02:22;12.30;99.90
3866;DHT22;1948;53.250;10.412;2023-04-24T03:04:49;12.30;99.90
3866;DHT22;1948;53.250;10.412;2023-04-24T03:07:16;12.40;99.90
3866;DHT22;1948;53.250;10.412;2023-04-24T03:09:45;12.30;99.90
3866;DHT22;1948;53.250;10.412;2023-04-24T03:12:15;12.30;99.90
3866;DHT22;1948;53.250;10.412;2023-04-24T03:14:44;12.30;99.90
3866;DHT22;1948;53.250;10.412;2023-04-24T03:17:11;12.20;99.90
3866;DHT22;1948;53.250;10.412;2023-04-24T03:19:37;12.20;99.90
3866;DHT22;1948;53.250;10.412;2023-04-24T03:22:05;12.20;99.90
3866;DHT22;1948;53.250;10.412;2023-04-24T03:24:32;12.10;99.90
3866;DHT22;1948;53.250;10.412;2023-04-24T03:27:06;12.00;99.90
3866;DHT22;1948;53.250;10.412;2023-04-24T03:29:33;12.10;99.90
3866;DHT22;1948;53.250;10.412;2023-04-24T03:32:00;12.00;99.90
3866;DHT22;1948;53.250;10.412;2023-04-24T03:34:27;12.00;99.90
3866;DHT22;1948;53.250;10.412;2023-04-24T03:36:56;11.90;99.90
3866;DHT22;1948;53.250;10.412;2023-04-24T03:39:26;11.90;99.90
3866;DHT22;1948;53.250;10.412;2023-04-24T03:41:57;11.80;99.90
3866;DHT22;1948;53.250;10.412;2023-04-24T03:44:24;11.80;99.90
3866;DHT22;1948;53.250;10.412;2023-04-24T03:46:53;11.70;99.90
3866;DHT22;1948;53.250;10.412;2023-04-24T03:49:23;11.80;99.90
3866;DHT22;1948;53.250;10.412;2023-04-24T03:51:50;11.80;99.90
3866;DHT22;1948;53.250;10.412;2023-04-24T03:54:17;11.70;99.90
3866;DHT22;1948;53.250;10.412;2023-04-24T03:56:46;11.70;99.90
3866;DHT22;1948;53.250;10.412;2023-04-24T03:59:13;11.70;99.90
3866;DHT22;1948;53.250;10.412;2023-04-24T04:01:43;11.60;99.90
3866;DHT22;1948;53.250;10.412;2023-04-24T04:04:10;11.60;99.90
3866;DHT22;1948;53.250;10.412;2023-04-24T04:06:38;11.60;99.90
3866;DHT22;1948;53.250;10.412;2023-04-24T04:09:09;11.60;99.90
3866;DHT22;1948;53.250;10.412;2023-04-24T04:11:37;11.60;99.90
3866;DHT22;1948;53.250;10.412;2023-04-24T04:14:04;11.60;99.90
3866;DHT22;1948;53.250;10.412;2023-04-24T04:16:33;11.50;99.90
3866;DHT22;1948;53.250;10.412;2023-04-24T04:19:02;11.60;99.90
3866;DHT22;1948;53.250;10.412;2023-04-24T04:21:29;11.50;99.90
3866;DHT22;1948;53.250;10.412;2023-04-24T04:23:57;11.50;99.90
3866;DHT22;1948;53.250;10.412;2023-04-24T04:26:25;11.60;99.90
3866;DHT22;1948;53.250;10.412;2023-04-24T04:28:52;11.50;99.90
3866;DHT22;1948;53.250;10.412;2023-04-24T04:31:20;11.50;99.90
3866;DHT22;1948;53.250;10.412;2023-04-24T04:33:50;11.50;99.90
3866;DHT22;1948;53.250;10.412;2023-04-24T04:36:19;11.50;99.90
3866;DHT22;1948;53.250;10.412;2023-04-24T04:38:46;11.50;99.90
3866;DHT22;1948;53.250;10.412;2023-04-24T04:41:13;11.50;99.90
3866;DHT22;1948;53.250;10.412;2023-04-24T04:43:42;11.50;99.90
3866;DHT22;1948;53.250;10.412;2023-04-24T04:46:09;11.50;99.90
3866;DHT22;1948;53.250;10.412;2023-04-24T04:48:37;11.50;99.90
3866;DHT22;1948;53.250;10.412;2023-04-24T04:51:06;11.50;99.90
3866;DHT22;1948;53.250;10.412;2023-04-24T04:53:36;11.50;99.90
3866;DHT22;1948;53.250;10.412;2023-04-24T04:56:03;11.50;99.90
3866;DHT22;1948;53.250;10.412;2023-04-24T04:58:30;11.50;99.90
3866;DHT22;1948;53.250;10.412;2023-04-24T05:00:57;11.50;99.90
3866;DHT22;1948;53.250;10.412;2023-04-24T05:03:24;11.50;99.90
3866;DHT22;1948;53.250;10.412;2023-04-24T05:05:53;11.50;99.90
3866;DHT22;1948;53.250;10.412;2023-04-24T05:08:20;11.60;99.90
3866;DHT22;1948;53.250;10.412;2023-04-24T05:10:54;11.60;99.90
3866;DHT22;1948;53.250;10.412;2023-04-24T05:13:21;11.60;99.90
3866;DHT22;1948;53.250;10.412;2023-04-24T05:16:04;11.70;99.90
3866;DHT22;1948;53.250;10.412;2023-04-24T05:18:31;11.80;99.90
3866;DHT22;1948;53.250;10.412;2023-04-24T05:20:58;11.80;99.90
3866;DHT22;1948;53.250;10.412;2023-04-24T05:23:25;11.80;99.90
3866;DHT22;1948;53.250;10.412;2023-04-24T05:25:52;11.80;99.90
3866;DHT22;1948;53.250;10.412;2023-04-24T05:28:18;11.80;99.90
3866;DHT22;1948;53.250;10.412;2023-04-24T05:30:46;11.80;99.90
3866;DHT22;1948;53.250;10.412;2023-04-24T05:33:13;11.80;99.90
3866;DHT22;1948;53.250;10.412;2023-04-24T05:35:40;11.90;99.90
3866;DHT22;1948;53.250;10.412;2023-04-24T05:38:13;11.90;99.90
3866;DHT22;1948;53.250;10.412;2023-04-24T05:40:40;11.80;99.90
3866;DHT22;1948;53.250;10.412;2023-04-24T05:43:09;11.90;99.90
3866;DHT22;1948;53.250;10.412;2023-04-24T05:45:36;11.90;99.90
3866;DHT22;1948;53.250;10.412;2023-04-24T05:48:08;12.00;99.90
3866;DHT22;1948;53.250;10.412;2023-04-24T05:50:37;12.10;99.90
3866;DHT22;1948;53.250;10.412;2023-04-24T05:53:04;12.10;99.90
3866;DHT22;1948;53.250;10.412;2023-04-24T05:55:31;12.10;99.90
3866;DHT22;1948;53.250;10.412;2023-04-24T05:58:01;12.20;99.90
3866;DHT22;1948;53.250;10.412;2023-04-24T06:00:27;12.20;99.90
3866;DHT22;1948;53.250;10.412;2023-04-24T06:03:00;12.10;99.90
3866;DHT22;1948;53.250;10.412;2023-04-24T06:05:29;12.20;99.90
3866;DHT22;1948;53.250;10.412;2023-04-24T06:07:57;12.30;99.90
3866;DHT22;1948;53.250;10.412;2023-04-24T06:10:24;12.40;99.90
3866;DHT22;1948;53.250;10.412;2023-04-24T06:12:51;12.50;99.90
3866;DHT22;1948;53.250;10.412;2023-04-24T06:15:18;12.60;99.90
3866;DHT22;1948;53.250;10.412;2023-04-24T06:17:45;12.70;99.90
3866;DHT22;1948;53.250;10.412;2023-04-24T06:20:12;12.80;99.90
3866;DHT22;1948;53.250;10.412;2023-04-24T06:22:39;12.80;99.90
3866;DHT22;1948;53.250;10.412;2023-04-24T06:25:06;12.80;99.90
3866;DHT22;1948;53.250;10.412;2023-04-24T06:27:34;12.90;99.90
3866;DHT22;1948;53.250;10.412;2023-04-24T06:30:02;13.00;99.90
3866;DHT22;1948;53.250;10.412;2023-04-24T06:32:29;13.10;99.90
3866;DHT22;1948;53.250;10.412;2023-04-24T06:34:57;13.10;99.90
3866;DHT22;1948;53.250;10.412;2023-04-24T06:37:27;13.10;99.90
3866;DHT22;1948;53.250;10.412;2023-04-24T06:39:54;13.10;99.90
3866;DHT22;1948;53.250;10.412;2023-04-24T06:42:23;13.30;99.90
3866;DHT22;1948;53.250;10.412;2023-04-24T06:44:53;13.40;99.90
3866;DHT22;1948;53.250;10.412;2023-04-24T06:47:20;13.50;99.90
3866;DHT22;1948;53.250;10.412;2023-04-24T06:49:50;13.50;99.90
3866;DHT22;1948;53.250;10.412;2023-04-24T06:52:19;13.60;99.90
3866;DHT22;1948;53.250;10.412;2023-04-24T06:54:46;13.60;99.90
3866;DHT22;1948;53.250;10.412;2023-04-24T06:57:13;13.60;99.90
3866;DHT22;1948;53.250;10.412;2023-04-24T06:59:43;13.70;99.90
3866;DHT22;1948;53.250;10.412;2023-04-24T07:02:12;13.80;99.90
3866;DHT22;1948;53.250;10.412;2023-04-24T07:04:40;14.00;99.90
3866;DHT22;1948;53.250;10.412;2023-04-24T07:07:12;14.30;99.90
3866;DHT22;1948;53.250;10.412;2023-04-24T07:09:40;14.50;99.90
3866;DHT22;1948;53.250;10.412;2023-04-24T07:12:12;14.70;99.90
3866;DHT22;1948;53.250;10.412;2023-04-24T07:14:39;14.70;99.90
3866;DHT22;1948;53.250;10.412;2023-04-24T07:17:09;14.70;99.90
3866;DHT22;1948;53.250;10.412;2023-04-24T07:19:36;14.80;99.90
3866;DHT22;1948;53.250;10.412;2023-04-24T07:22:03;15.10;99.90
3866;DHT22;1948;53.250;10.412;2023-04-24T07:24:30;15.40;99.90
3866;DHT22;1948;53.250;10.412;2023-04-24T07:27:01;15.50;99.90
3866;DHT22;1948;53.250;10.412;2023-04-24T07:29:28;15.60;99.90
3866;DHT22;1948;53.250;10.412;2023-04-24T07:31:55;15.70;99.90
3866;DHT22;1948;53.250;10.412;2023-04-24T07:34:23;15.50;99.90
3866;DHT22;1948;53.250;10.412;2023-04-24T07:36:52;15.30;99.90
3866;DHT22;1948;53.250;10.412;2023-04-24T07:39:22;15.30;99.90
3866;DHT22;1948;53.250;10.412;2023-04-24T07:41:50;15.40;99.90
3866;DHT22;1948;53.250;10.412;2023-04-24T07:44:17;15.50;99.90
3866;DHT22;1948;53.250;10.412;2023-04-24T07:46:44;15.50;99.90
3866;DHT22;1948;53.250;10.412;2023-04-24T07:49:11;15.40;99.90
3866;DHT22;1948;53.250;10.412;2023-04-24T07:51:43;15.50;99.90
3866;DHT22;1948;53.250;10.412;2023-04-24T07:54:11;15.40;99.90
3866;DHT22;1948;53.250;10.412;2023-04-24T07:56:41;15.50;99.90
3866;DHT22;1948;53.250;10.412;2023-04-24T07:59:10;15.90;99.90
3866;DHT22;1948;53.250;10.412;2023-04-24T08:01:37;16.30;99.90
3866;DHT22;1948;53.250;10.412;2023-04-24T08:04:07;16.50;99.90
3866;DHT22;1948;53.250;10.412;2023-04-24T08:06:34;16.10;99.90
3866;DHT22;1948;53.250;10.412;2023-04-24T08:09:01;16.00;99.90
3866;DHT22;1948;53.250;10.412;2023-04-24T08:11:28;16.00;99.90
3866;DHT22;1948;53.250;10.412;2023-04-24T08:13:55;16.00;99.90
3866;DHT22;1948;53.250;10.412;2023-04-24T08:16:25;16.00;99.90
3866;DHT22;1948;53.250;10.412;2023-04-24T08:18:53;16.10;99.90
3866;DHT22;1948;53.250;10.412;2023-04-24T08:21:20;16.20;99.90
3866;DHT22;1948;53.250;10.412;2023-04-24T08:23:56;16.20;99.90
3866;DHT22;1948;53.250;10.412;2023-04-24T08:26:22;15.80;99.90
3866;DHT22;1948;53.250;10.412;2023-04-24T08:28:52;15.40;99.90
3866;DHT22;1948;53.250;10.412;2023-04-24T08:31:21;15.40;99.90
3866;DHT22;1948;53.250;10.412;2023-04-24T08:33:51;15.40;99.90
3866;DHT22;1948;53.250;10.412;2023-04-24T08:36:23;15.30;99.90
3866;DHT22;1948;53.250;10.412;2023-04-24T08:39:09;15.40;99.90
3866;DHT22;1948;53.250;10.412;2023-04-24T08:41:42;15.50;99.90
3866;DHT22;1948;53.250;10.412;2023-04-24T08:44:13;15.60;99.90
3866;DHT22;1948;53.250;10.412;2023-04-24T08:46:43;15.60;99.90
3866;DHT22;1948;53.250;10.412;2023-04-24T08:49:15;15.50;99.90
3866;DHT22;1948;53.250;10.412;2023-04-24T08:51:45;15.40;99.90
3866;DHT22;1948;53.250;10.412;2023-04-24T08:54:14;15.60;99.90
3866;DHT22;1948;53.250;10.412;2023-04-24T08:56:44;15.70;99.90
3866;DHT22;1948;53.250;10.412;2023-04-24T08:59:14;16.00;99.90
3866;DHT22;1948;53.250;10.412;2023-04-24T09:01:45;16.20;99.90
3866;DHT22;1948;53.250;10.412;2023-04-24T09:04:14;16.00;99.90
3866;DHT22;1948;53.250;10.412;2023-04-24T09:06:45;16.00;99.90
3866;DHT22;1948;53.250;10.412;2023-04-24T09:09:15;16.00;99.90
3866;DHT22;1948;53.250;10.412;2023-04-24T09:11:46;16.00;99.90
3866;DHT22;1948;53.250;10.412;2023-04-24T09:14:13;16.00;99.90
3866;DHT22;1948;53.250;10.412;2023-04-24T09:16:41;16.10;99.90
3866;DHT22;1948;53.250;10.412;2023-04-24T09:19:08;16.20;99.90
3866;DHT22;1948;53.250;10.412;2023-04-24T09:21:35;16.00;99.90
3866;DHT22;1948;53.250;10.412;2023-04-24T09:24:19;15.90;99.90
3866;DHT22;1948;53.250;10.412;2023-04-24T09:26:56;15.90;99.90
3866;DHT22;1948;53.250;10.412;2023-04-24T09:29:28;15.80;99.90
3866;DHT22;1948;53.250;10.412;2023-04-24T09:31:55;15.80;99.90
3866;DHT22;1948;53.250;10.412;2023-04-24T09:34:24;15.60;99.90
3866;DHT22;1948;53.250;10.412;2023-04-24T09:36:53;15.80;99.90
3866;DHT22;1948;53.250;10.412;2023-04-24T09:39:20;15.90;99.90
3866;DHT22;1948;53.250;10.412;2023-04-24T09:41:56;16.10;99.90
3866;DHT22;1948;53.250;10.412;2023-04-24T09:44:28;16.40;99.90
3866;DHT22;1948;53.250;10.412;2023-04-24T09:46:59;16.80;99.90
3866;DHT22;1948;53.250;10.412;2023-04-24T09:49:30;17.40;99.90
3866;DHT22;1948;53.250;10.412;2023-04-24T09:52:08;17.90;99.90
3866;DHT22;1948;53.250;10.412;2023-04-24T09:54:37;17.60;99.90
3866;DHT22;1948;53.250;10.412;2023-04-24T09:57:14;17.50;99.90
3866;DHT22;1948;53.250;10.412;2023-04-24T09:59:45;17.20;99.90
3866;DHT22;1948;53.250;10.412;2023-04-24T10:02:18;16.90;99.90
3866;DHT22;1948;53.250;10.412;2023-04-24T10:04:56;16.60;99.90
3866;DHT22;1948;53.250;10.412;2023-04-24T10:07:26;16.30;99.90
3866;DHT22;1948;53.250;10.412;2023-04-24T10:09:58;15.70;99.90
3866;DHT22;1948;53.250;10.412;2023-04-24T10:12:33;16.10;99.90
3866;DHT22;1948;53.250;10.412;2023-04-24T10:15:01;16.40;99.90
3866;DHT22;1948;53.250;10.412;2023-04-24T10:17:35;16.50;99.90
3866;DHT22;1948;53.250;10.412;2023-04-24T10:20:05;16.60;99.90
3866;DHT22;1948;53.250;10.412;2023-04-24T10:22:33;16.40;99.90
3866;DHT22;1948;53.250;10.412;2023-04-24T10:25:04;16.50;99.90
3866;DHT22;1948;53.250;10.412;2023-04-24T10:27:32;16.70;99.90
3866;DHT22;1948;53.250;10.412;2023-04-24T10:30:01;16.90;99.90
3866;DHT22;1948;53.250;10.412;2023-04-24T10:32:28;17.30;99.90
3866;DHT22;1948;53.250;10.412;2023-04-24T10:34:56;17.40;99.90
3866;DHT22;1948;53.250;10.412;2023-04-24T10:37:29;17.30;99.90
3866;DHT22;1948;53.250;10.412;2023-04-24T10:40:05;17.30;99.90
3866;DHT22;1948;53.250;10.412;2023-04-24T10:42:40;17.70;99.90
3866;DHT22;1948;53.250;10.412;2023-04-24T10:45:17;17.60;99.90
3866;DHT22;1948;53.250;10.412;2023-04-24T10:48:11;17.10;99.90
3866;DHT22;1948;53.250;10.412;2023-04-24T10:50:46;16.70;99.90
3866;DHT22;1948;53.250;10.412;2023-04-24T10:53:18;16.40;99.90
3866;DHT22;1948;53.250;10.412;2023-04-24T10:58:15;16.00;99.90
3866;DHT22;1948;53.250;10.412;2023-04-24T11:00:44;16.20;99.90
3866;DHT22;1948;53.250;10.412;2023-04-24T11:06:03;17.20;99.90
3866;DHT22;1948;53.250;10.412;2023-04-24T11:08:46;17.30;99.90
3866;DHT22;1948;53.250;10.412;2023-04-24T11:11:18;17.80;99.90
3866;DHT22;1948;53.250;10.412;2023-04-24T11:24:28;16.30;99.90
3866;DHT22;1948;53.250;10.412;2023-04-24T11:29:44;16.30;99.90
3866;DHT22;1948;53.250;10.412;2023-04-24T11:32:25;16.40;99.90
3866;DHT22;1948;53.250;10.412;2023-04-24T11:37:45;16.90;99.90
3866;DHT22;1948;53.250;10.412;2023-04-24T11:40:23;16.70;99.90
3866;DHT22;1948;53.250;10.412;2023-04-24T11:42:51;16.80;99.90
3866;DHT22;1948;53.250;10.412;2023-04-24T11:45:23;17.30;99.90
3866;DHT22;1948;53.250;10.412;2023-04-24T11:47:51;17.30;99.90
3866;DHT22;1948;53.250;10.412;2023-04-24T11:50:21;17.00;99.90
3866;DHT22;1948;53.250;10.412;2023-04-24T11:52:50;17.10;99.90
3866;DHT22;1948;53.250;10.412;2023-04-24T11:57:48;16.60;99.90
3866;DHT22;1948;53.250;10.412;2023-04-24T12:00:36;16.30;99.90
3866;DHT22;1948;53.250;10.412;2023-04-24T12:03:08;15.90;99.90
3866;DHT22;1948;53.250;10.412;2023-04-24T12:05:37;15.60;99.90
3866;DHT22;1948;53.250;10.412;2023-04-24T12:08:06;15.40;99.90
3866;DHT22;1948;53.250;10.412;2023-04-24T12:10:35;15.30;99.90
3866;DHT22;1948;53.250;10.412;2023-04-24T12:13:05;15.10;99.90
3866;DHT22;1948;53.250;10.412;2023-04-24T12:15:34;15.20;99.90
3866;DHT22;1948;53.250;10.412;2023-04-24T12:18:01;15.20;99.90
3866;DHT22;1948;53.250;10.412;2023-04-24T12:20:32;15.40;99.90
3866;DHT22;1948;53.250;10.412;2023-04-24T12:23:00;15.20;99.90
3866;DHT22;1948;53.250;10.412;2023-04-24T12:25:32;15.20;99.90
3866;DHT22;1948;53.250;10.412;2023-04-24T12:30:43;15.30;99.90
3866;DHT22;1948;53.250;10.412;2023-04-24T12:33:21;15.30;99.90
3866;DHT22;1948;53.250;10.412;2023-04-24T12:35:52;15.60;99.90
3866;DHT22;1948;53.250;10.412;2023-04-24T12:38:28;15.60;99.90
3866;DHT22;1948;53.250;10.412;2023-04-24T12:41:08;15.70;99.90
3866;DHT22;1948;53.250;10.412;2023-04-24T12:43:37;16.20;99.90
3866;DHT22;1948;53.250;10.412;2023-04-24T12:46:08;16.00;99.90
3866;DHT22;1948;53.250;10.412;2023-04-24T12:48:35;15.80;99.90
3866;DHT22;1948;53.250;10.412;2023-04-24T12:51:05;15.70;99.90
3866;DHT22;1948;53.250;10.412;2023-04-24T12:53:37;15.80;99.90
3866;DHT22;1948;53.250;10.412;2023-04-24T12:56:11;15.80;99.90
3866;DHT22;1948;53.250;10.412;2023-04-24T12:58:38;15.50;99.90
3866;DHT22;1948;53.250;10.412;2023-04-24T13:01:08;15.40;99.90
3866;DHT22;1948;53.250;10.412;2023-04-24T13:03:37;15.40;99.90
3866;DHT22;1948;53.250;10.412;2023-04-24T13:06:05;15.20;99.90
3866;DHT22;1948;53.250;10.412;2023-04-24T13:08:32;15.10;99.90
3866;DHT22;1948;53.250;10.412;2023-04-24T13:10:58;14.90;99.90
3866;DHT22;1948;53.250;10.412;2023-04-24T13:13:30;14.70;99.90
3866;DHT22;1948;53.250;10.412;2023-04-24T13:16:02;14.50;99.90
3866;DHT22;1948;53.250;10.412;2023-04-24T13:18:31;14.40;99.90
3866;DHT22;1948;53.250;10.412;2023-04-24T13:20:58;14.30;99.90
3866;DHT22;1948;53.250;10.412;2023-04-24T13:23:28;14.40;99.90
3866;DHT22;1948;53.250;10.412;2023-04-24T13:25:55;14.30;99.90
3866;DHT22;1948;53.250;10.412;2023-04-24T13:28:25;14.30;99.90
3866;DHT22;1948;53.250;10.412;2023-04-24T13:30:55;14.30;99.90
3866;DHT22;1948;53.250;10.412;2023-04-24T13:33:26;14.20;99.90
3866;DHT22;1948;53.250;10.412;2023-04-24T13:35:55;14.20;99.90
3866;DHT22;1948;53.250;10.412;2023-04-24T13:38:25;14.20;99.90
3866;DHT22;1948;53.250;10.412;2023-04-24T13:40:57;14.40;99.90
3866;DHT22;1948;53.250;10.412;2023-04-24T13:43:24;14.70;99.90
3866;DHT22;1948;53.250;10.412;2023-04-24T13:45:51;14.70;99.90
3866;DHT22;1948;53.250;10.412;2023-04-24T13:48:18;14.60;99.90
3866;DHT22;1948;53.250;10.412;2023-04-24T13:50:45;14.80;99.90
3866;DHT22;1948;53.250;10.412;2023-04-24T13:53:14;15.10;99.90
3866;DHT22;1948;53.250;10.412;2023-04-24T13:55:42;15.20;99.90
3866;DHT22;1948;53.250;10.412;2023-04-24T13:58:11;15.40;99.90
3866;DHT22;1948;53.250;10.412;2023-04-24T14:00:38;15.10;99.90
3866;DHT22;1948;53.250;10.412;2023-04-24T14:03:05;15.00;99.90
3866;DHT22;1948;53.250;10.412;2023-04-24T14:05:32;14.80;99.90
3866;DHT22;1948;53.250;10.412;2023-04-24T14:07:59;14.80;99.90
3866;DHT22;1948;53.250;10.412;2023-04-24T14:10:26;14.70;99.90
3866;DHT22;1948;53.250;10.412;2023-04-24T14:12:55;14.30;99.90
3866;DHT22;1948;53.250;10.412;2023-04-24T14:15:25;14.00;99.90
3866;DHT22;1948;53.250;10.412;2023-04-24T14:17:54;13.90;99.90
3866;DHT22;1948;53.250;10.412;2023-04-24T14:20:23;13.80;99.90
3866;DHT22;1948;53.250;10.412;2023-04-24T14:22:50;13.80;99.90
3866;DHT22;1948;53.250;10.412;2023-04-24T14:25:20;13.90;99.90
3866;DHT22;1948;53.250;10.412;2023-04-24T14:27:51;13.70;99.90
3866;DHT22;1948;53.250;10.412;2023-04-24T14:30:18;13.70;99.90
3866;DHT22;1948;53.250;10.412;2023-04-24T14:32:45;13.70;99.90
3866;DHT22;1948;53.250;10.412;2023-04-24T14:35:16;13.70;99.90
3866;DHT22;1948;53.250;10.412;2023-04-24T14:37:45;13.90;99.90
3866;DHT22;1948;53.250;10.412;2023-04-24T14:40:12;13.90;99.90
3866;DHT22;1948;53.250;10.412;2023-04-24T14:43:01;14.00;99.90
3866;DHT22;1948;53.250;10.412;2023-04-24T14:45:31;13.80;99.90
3866;DHT22;1948;53.250;10.412;2023-04-24T14:48:00;13.70;99.90
3866;DHT22;1948;53.250;10.412;2023-04-24T14:50:27;13.40;99.90
3866;DHT22;1948;53.250;10.412;2023-04-24T14:52:55;13.30;99.90
3866;DHT22;1948;53.250;10.412;2023-04-24T14:55:25;13.20;99.90
3866;DHT22;1948;53.250;10.412;2023-04-24T14:57:52;12.90;99.90
3866;DHT22;1948;53.250;10.412;2023-04-24T15:00:20;12.70;99.90
3866;DHT22;1948;53.250;10.412;2023-04-24T15:02:50;12.60;99.90
3866;DHT22;1948;53.250;10.412;2023-04-24T15:05:18;12.50;99.90
3866;DHT22;1948;53.250;10.412;2023-04-24T15:07:48;12.30;99.90
3866;DHT22;1948;53.250;10.412;2023-04-24T15:10:15;12.30;99.90
3866;DHT22;1948;53.250;10.412;2023-04-24T15:12:44;12.30;99.90
3866;DHT22;1948;53.250;10.412;2023-04-24T15:15:13;12.30;99.90
3866;DHT22;1948;53.250;10.412;2023-04-24T15:17:40;12.20;99.90
3866;DHT22;1948;53.250;10.412;2023-04-24T15:20:12;12.00;99.90
3866;DHT22;1948;53.250;10.412;2023-04-24T15:22:39;12.00;99.90
3866;DHT22;1948;53.250;10.412;2023-04-24T15:25:06;11.90;99.90
3866;DHT22;1948;53.250;10.412;2023-04-24T15:27:43;11.70;99.90
3866;DHT22;1948;53.250;10.412;2023-04-24T15:30:13;11.60;99.90
3866;DHT22;1948;53.250;10.412;2023-04-24T15:32:40;11.50;99.90
3866;DHT22;1948;53.250;10.412;2023-04-24T15:35:07;11.50;99.90
3866;DHT22;1948;53.250;10.412;2023-04-24T15:37:39;11.70;99.90
3866;DHT22;1948;53.250;10.412;2023-04-24T15:40:06;11.80;99.90
3866;DHT22;1948;53.250;10.412;2023-04-24T15:42:37;11.90;99.90
3866;DHT22;1948;53.250;10.412;2023-04-24T15:45:04;11.80;99.90
3866;DHT22;1948;53.250;10.412;2023-04-24T15:47:32;11.80;99.90
3866;DHT22;1948;53.250;10.412;2023-04-24T15:50:02;11.80;99.90
3866;DHT22;1948;53.250;10.412;2023-04-24T15:52:31;11.90;99.90
3866;DHT22;1948;53.250;10.412;2023-04-24T15:55:02;12.00;99.90
3866;DHT22;1948;53.250;10.412;2023-04-24T15:57:32;12.00;99.90
3866;DHT22;1948;53.250;10.412;2023-04-24T15:59:59;12.00;99.90
3866;DHT22;1948;53.250;10.412;2023-04-24T16:02:26;11.70;99.90
3866;DHT22;1948;53.250;10.412;2023-04-24T16:04:53;11.40;99.90
3866;DHT22;1948;53.250;10.412;2023-04-24T16:07:21;11.30;99.90
3866;DHT22;1948;53.250;10.412;2023-04-24T16:09:47;11.10;99.90
3866;DHT22;1948;53.250;10.412;2023-04-24T16:12:16;11.00;99.90
3866;DHT22;1948;53.250;10.412;2023-04-24T16:14:43;10.90;99.90
3866;DHT22;1948;53.250;10.412;2023-04-24T16:17:12;10.70;99.90
3866;DHT22;1948;53.250;10.412;2023-04-24T16:19:42;10.60;99.90
3866;DHT22;1948;53.250;10.412;2023-04-24T16:22:11;10.50;99.90
3866;DHT22;1948;53.250;10.412;2023-04-24T16:24:42;10.50;99.90